createdAt,value
2018-10-11T00:01:50.903Z,21.03
2018-10-11T00:04:19.644Z,21.07
2018-10-11T00:06:48.312Z,20.57
2018-10-11T00:09:16.996Z,20.70
2018-10-11T00:11:45.718Z,21.13
2018-10-11T00:14:14.442Z,21.33
2018-10-11T00:16:43.124Z,22.23
2018-10-11T00:19:11.809Z,19.90
2018-10-11T00:21:40.516Z,20.33
2018-10-11T00:24:09.210Z,20.87
2018-10-11T00:26:38.193Z,21.17
2018-10-11T00:29:06.865Z,20.97
2018-10-11T00:31:35.525Z,20.37
2018-10-11T00:34:04.221Z,20.20
2018-10-11T00:36:32.907Z,20.70
2018-10-11T00:39:01.569Z,19.53
2018-10-11T00:41:30.247Z,21.07
2018-10-11T00:43:58.916Z,19.93
2018-10-11T00:46:27.599Z,19.43
2018-10-11T00:48:56.289Z,20.20
2018-10-11T00:51:24.975Z,20.40
2018-10-11T00:53:53.641Z,20.43
2018-10-11T00:56:22.318Z,19.77
2018-10-11T00:58:50.984Z,20.53
2018-10-11T01:01:19.685Z,19.87
2018-10-11T01:03:48.359Z,19.63
2018-10-11T01:06:17.050Z,20.10
2018-10-11T01:08:45.744Z,19.57
2018-10-11T01:11:14.422Z,18.77
2018-10-11T01:13:43.112Z,20.07
2018-10-11T01:16:11.799Z,20.10
2018-10-11T01:18:40.528Z,19.97
2018-10-11T01:21:09.480Z,20.77
2018-10-11T01:23:38.393Z,19.87
2018-10-11T01:26:07.130Z,20.13
2018-10-11T01:28:35.866Z,19.77
2018-10-11T01:31:09.984Z,19.30
2018-10-11T01:33:38.636Z,19.90
2018-10-11T01:36:07.300Z,19.57
2018-10-11T01:38:36.119Z,18.40
2018-10-11T01:41:04.790Z,19.93
2018-10-11T01:43:33.557Z,18.73
2018-10-11T01:46:02.237Z,18.30
2018-10-11T01:48:30.897Z,19.63
2018-10-11T01:50:59.597Z,19.90
2018-10-11T01:53:28.320Z,19.27
2018-10-11T01:55:57.041Z,21.03
2018-10-11T01:58:25.745Z,20.17
2018-10-11T02:00:54.424Z,20.13
2018-10-11T02:03:23.110Z,20.93
2018-10-11T02:05:51.785Z,19.93
2018-10-11T02:08:20.444Z,19.40
2018-10-11T02:10:49.140Z,20.63
2018-10-11T02:13:17.790Z,21.70
2018-10-11T02:15:46.483Z,19.27
2018-10-11T02:18:15.152Z,20.70
2018-10-11T02:20:43.813Z,20.27
2018-10-11T02:23:12.495Z,21.30
2018-10-11T02:25:41.213Z,21.13
2018-10-11T02:28:10.329Z,20.47
2018-10-11T02:30:39.033Z,20.43
2018-10-11T02:33:07.720Z,22.27
2018-10-11T02:35:36.417Z,20.77
2018-10-11T02:38:05.099Z,20.20
2018-10-11T02:40:33.788Z,20.93
2018-10-11T02:43:02.473Z,20.70
2018-10-11T02:45:31.175Z,21.37
2018-10-11T02:47:59.827Z,21.23
2018-10-11T02:50:28.521Z,19.53
2018-10-11T02:52:57.175Z,20.33
2018-10-11T02:55:27.011Z,21.20
2018-10-11T02:58:07.291Z,19.87
2018-10-11T03:00:36.170Z,20.00
2018-10-11T03:03:09.898Z,20.77
2018-10-11T03:05:41.166Z,20.00
2018-10-11T03:08:11.996Z,21.43
2018-10-11T03:10:40.674Z,20.57
2018-10-11T03:13:11.054Z,19.70
2018-10-11T03:15:40.162Z,20.70
2018-10-11T03:18:08.824Z,21.30
2018-10-11T03:20:37.618Z,20.53
2018-10-11T03:23:06.309Z,19.10
2018-10-11T03:25:34.983Z,20.50
2018-10-11T03:28:03.652Z,19.57
2018-10-11T03:30:32.413Z,19.30
2018-10-11T03:33:01.081Z,19.97
2018-10-11T03:35:29.766Z,19.87
2018-10-11T03:37:58.624Z,19.93
2018-10-11T03:40:27.667Z,19.87
2018-10-11T03:42:56.732Z,20.80
2018-10-11T03:45:25.595Z,20.03
2018-10-11T03:47:54.289Z,19.80
2018-10-11T03:50:22.953Z,19.60
2018-10-11T03:52:51.643Z,20.37
2018-10-11T03:55:20.353Z,19.83
2018-10-11T03:57:49.195Z,20.27
2018-10-11T04:00:18.007Z,20.07
2018-10-11T04:02:46.881Z,19.77
2018-10-11T04:05:15.738Z,21.43
2018-10-11T04:07:44.699Z,20.37
2018-10-11T04:10:13.558Z,19.87
2018-10-11T04:12:42.410Z,21.00
2018-10-11T04:15:11.234Z,20.07
2018-10-11T04:17:40.105Z,20.47
2018-10-11T04:20:08.969Z,20.73
2018-10-11T04:22:37.803Z,21.67
2018-10-11T04:25:06.605Z,21.60
2018-10-11T04:27:35.458Z,21.83
2018-10-11T04:30:04.390Z,21.13
2018-10-11T04:32:33.199Z,21.43
2018-10-11T04:35:02.101Z,21.23
2018-10-11T04:37:30.945Z,21.00
2018-10-11T04:39:59.741Z,21.40
2018-10-11T04:42:28.571Z,21.27
2018-10-11T04:44:57.531Z,20.90
2018-10-11T04:47:26.422Z,22.10
2018-10-11T04:49:55.227Z,20.20
2018-10-11T04:52:24.057Z,21.43
2018-10-11T04:54:52.971Z,21.67
2018-10-11T04:57:21.697Z,20.83
2018-10-11T04:59:50.399Z,21.37
2018-10-11T05:02:19.081Z,19.97
2018-10-11T05:04:47.825Z,21.77
2018-10-11T05:07:16.570Z,21.07
2018-10-11T05:09:45.266Z,20.27
2018-10-11T05:12:13.985Z,20.70
2018-10-11T05:14:43.139Z,20.80
2018-10-11T05:17:11.895Z,21.43
2018-10-11T05:19:40.743Z,20.73
2018-10-11T05:22:09.464Z,21.10
2018-10-11T05:24:38.193Z,20.33
2018-10-11T05:27:06.890Z,20.77
2018-10-11T05:29:35.604Z,21.77
2018-10-11T05:32:04.429Z,22.90
2018-10-11T05:34:33.116Z,21.47
2018-10-11T05:37:01.808Z,22.57
2018-10-11T05:39:30.537Z,21.83
2018-10-11T05:41:59.556Z,21.53
2018-10-11T05:44:28.423Z,24.00
2018-10-11T05:46:57.080Z,20.23
2018-10-11T05:49:25.759Z,21.90
2018-10-11T05:51:54.480Z,22.03
2018-10-11T05:54:23.184Z,18.90
2018-10-11T05:56:52.003Z,20.60
2018-10-11T05:59:20.595Z,21.67
2018-10-11T06:01:49.301Z,20.37
2018-10-11T06:04:18.224Z,20.07
2018-10-11T06:06:48.395Z,21.47
2018-10-11T06:09:17.202Z,21.80
2018-10-11T06:11:46.206Z,21.70
2018-10-11T06:14:15.145Z,20.87
2018-10-11T06:16:44.001Z,21.40
2018-10-11T06:19:13.839Z,21.27
2018-10-11T06:21:42.519Z,22.27
2018-10-11T06:24:11.488Z,19.97
2018-10-11T06:26:40.302Z,20.43
2018-10-11T06:29:09.109Z,20.33
2018-10-11T06:31:37.794Z,20.40
2018-10-11T06:34:06.684Z,19.67
2018-10-11T06:36:35.509Z,19.70
2018-10-11T06:39:05.182Z,19.37
2018-10-11T06:41:33.956Z,19.67
2018-10-11T06:44:02.649Z,19.00
2018-10-11T06:46:31.366Z,19.67
2018-10-11T06:49:00.056Z,19.70
2018-10-11T06:51:28.879Z,19.43
2018-10-11T06:53:57.602Z,19.47
2018-10-11T06:56:26.486Z,19.50
2018-10-11T06:58:55.168Z,19.00
2018-10-11T07:01:24.010Z,19.10
2018-10-11T07:03:52.885Z,18.23
2018-10-11T07:06:21.623Z,18.97
2018-10-11T07:08:50.396Z,18.50
2018-10-11T07:11:19.262Z,18.40
2018-10-11T07:13:47.950Z,18.17
2018-10-11T07:16:16.624Z,19.30
2018-10-11T07:18:45.308Z,19.10
2018-10-11T07:21:14.009Z,18.00
2018-10-11T07:23:42.697Z,18.50
2018-10-11T07:26:11.453Z,19.43
2018-10-11T07:28:40.135Z,19.00
2018-10-11T07:31:08.848Z,17.90
2018-10-11T07:33:37.549Z,18.20
2018-10-11T07:36:06.232Z,18.00
2018-10-11T07:38:35.083Z,18.43
2018-10-11T07:41:03.879Z,17.03
2018-10-11T07:43:32.658Z,18.03
2018-10-11T07:46:01.331Z,17.37
2018-10-11T07:48:30.181Z,17.93
2018-10-11T07:50:58.928Z,18.17
2018-10-11T07:53:27.712Z,18.07
2018-10-11T07:55:56.460Z,16.77
2018-10-11T07:58:25.175Z,16.97
2018-10-11T08:00:53.925Z,16.50
2018-10-11T08:03:22.839Z,17.07
2018-10-11T08:05:51.601Z,16.43
2018-10-11T08:08:20.345Z,15.77
2018-10-11T08:10:49.154Z,16.50
2018-10-11T08:13:17.826Z,15.97
2018-10-11T08:15:46.550Z,16.33
2018-10-11T08:18:15.280Z,15.43
2018-10-11T08:20:44.098Z,16.33
2018-10-11T08:23:12.763Z,15.30
2018-10-11T08:25:41.748Z,15.50
2018-10-11T08:28:10.280Z,16.23
2018-10-11T08:30:39.036Z,14.37
2018-10-11T08:33:07.743Z,15.13
2018-10-11T08:35:36.432Z,15.93
2018-10-11T08:38:05.346Z,14.93
2018-10-11T08:40:33.965Z,14.90
2018-10-11T08:43:02.708Z,15.17
2018-10-11T08:45:31.416Z,14.77
2018-10-11T08:48:00.320Z,15.10
2018-10-11T08:50:29.364Z,15.37
2018-10-11T08:52:58.214Z,14.20
2018-10-11T08:55:27.101Z,14.93
2018-10-11T08:57:55.973Z,15.03
2018-10-11T09:00:24.983Z,14.50
2018-10-11T09:02:53.968Z,14.57
2018-10-11T09:05:22.721Z,14.27
2018-10-11T09:07:51.565Z,13.90
2018-10-11T09:10:20.561Z,13.93
2018-10-11T09:12:50.085Z,13.03
2018-10-11T09:15:18.847Z,13.97
2018-10-11T09:17:47.561Z,12.20
2018-10-11T09:20:16.269Z,11.93
2018-10-11T09:22:45.054Z,11.90
2018-10-11T09:25:13.754Z,12.23
2018-10-11T09:27:42.457Z,12.37
2018-10-11T09:30:11.235Z,13.03
2018-10-11T09:32:39.861Z,11.37
2018-10-11T09:35:08.568Z,12.60
2018-10-11T09:37:37.410Z,11.90
2018-10-11T09:40:06.125Z,11.93
2018-10-11T09:42:34.834Z,12.43
2018-10-11T09:45:03.648Z,11.63
2018-10-11T09:47:32.390Z,12.60
2018-10-11T09:50:01.088Z,11.47
2018-10-11T09:52:29.796Z,11.93
2018-10-11T09:54:58.593Z,11.50
2018-10-11T09:57:30.382Z,11.37
2018-10-11T09:59:59.857Z,11.93
2018-10-11T10:02:29.081Z,11.53
2018-10-11T10:05:00.615Z,11.40
2018-10-11T10:07:29.520Z,12.00
2018-10-11T10:09:58.302Z,11.27
2018-10-11T10:12:26.969Z,11.17
2018-10-11T10:14:55.659Z,12.00
2018-10-11T10:17:24.374Z,12.00
2018-10-11T10:19:53.158Z,11.33
2018-10-11T10:22:21.857Z,11.20
2018-10-11T10:24:50.546Z,11.93
2018-10-11T10:27:19.375Z,11.33
2018-10-11T10:29:48.012Z,11.57
2018-10-11T10:32:16.722Z,10.63
2018-10-11T10:34:45.463Z,11.17
2018-10-11T10:37:14.216Z,10.87
2018-10-11T10:39:42.926Z,11.60
2018-10-11T10:42:11.700Z,10.93
2018-10-11T10:44:40.386Z,11.27
2018-10-11T10:47:09.078Z,11.00
2018-10-11T10:49:37.781Z,11.93
2018-10-11T10:52:06.598Z,11.53
2018-10-11T10:54:36.006Z,12.00
2018-10-11T10:57:05.269Z,12.80
2018-10-11T10:59:34.012Z,11.87
2018-10-11T11:02:02.973Z,12.50
2018-10-11T11:04:31.703Z,12.27
2018-10-11T11:07:00.422Z,12.17
2018-10-11T11:09:29.156Z,12.37
2018-10-11T11:11:57.896Z,13.20
2018-10-11T11:14:26.731Z,12.80
2018-10-11T11:16:55.406Z,12.45
2018-10-11T11:19:24.131Z,12.63
2018-10-11T11:21:52.833Z,13.40
2018-10-11T11:24:22.005Z,12.90
2018-10-11T11:26:50.751Z,13.50
2018-10-11T11:29:19.477Z,12.87
2018-10-11T11:31:48.165Z,13.03
2018-10-11T11:34:16.961Z,12.50
2018-10-11T11:36:45.645Z,13.07
2018-10-11T11:39:14.539Z,11.60
2018-10-11T11:41:43.238Z,11.60
2018-10-11T11:44:11.924Z,11.50
2018-10-11T11:46:40.681Z,11.40
2018-10-11T11:49:09.355Z,11.00
2018-10-11T11:51:38.074Z,11.67
2018-10-11T11:54:22.626Z,11.57
2018-10-11T11:56:52.168Z,10.20
2018-10-11T11:59:20.904Z,11.27
2018-10-11T12:01:49.610Z,10.60
2018-10-11T12:04:18.452Z,10.97
2018-10-11T12:06:47.166Z,10.90
2018-10-11T12:09:15.872Z,11.07
2018-10-11T12:11:44.664Z,11.47
2018-10-11T12:14:13.396Z,11.27
2018-10-11T12:16:42.163Z,11.03
2018-10-11T12:19:11.457Z,10.73
2018-10-11T12:21:40.454Z,11.03
2018-10-11T12:24:09.408Z,11.03
2018-10-11T12:26:38.189Z,10.90
2018-10-11T12:29:06.984Z,10.50
2018-10-11T12:31:35.584Z,9.93
2018-10-11T12:34:04.309Z,10.53
2018-10-11T12:36:33.073Z,9.70
2018-10-11T12:39:01.763Z,10.50
2018-10-11T12:41:30.457Z,10.67
2018-10-11T12:43:59.172Z,10.40
2018-10-11T12:46:27.931Z,10.90
2018-10-11T12:48:56.659Z,10.20
2018-10-11T12:51:25.351Z,10.73
2018-10-11T12:53:54.080Z,10.17
2018-10-11T12:56:22.835Z,10.23
2018-10-11T12:58:51.453Z,10.40
2018-10-11T13:01:22.977Z,10.03
2018-10-11T13:03:48.825Z,10.07
2018-10-11T13:06:17.525Z,9.90
2018-10-11T13:08:46.240Z,10.33
2018-10-11T13:11:15.030Z,9.60
2018-10-11T13:13:47.861Z,9.80
2018-10-11T13:16:12.549Z,10.13
2018-10-11T13:18:41.357Z,9.67
2018-10-11T13:21:10.037Z,9.90
2018-10-11T13:23:38.821Z,9.87
2018-10-11T13:26:07.498Z,9.47
2018-10-11T13:28:36.237Z,9.80
2018-10-11T13:31:04.907Z,10.00
2018-10-11T13:33:33.641Z,9.27
2018-10-11T13:36:02.399Z,9.57
2018-10-11T13:38:31.100Z,9.70
2018-10-11T13:41:03.079Z,9.77
2018-10-11T13:43:28.455Z,9.33
2018-10-11T13:46:00.109Z,9.50
2018-10-11T13:48:25.833Z,10.00
2018-10-11T13:50:54.561Z,9.17
2018-10-11T13:53:24.738Z,9.40
2018-10-11T13:55:56.672Z,9.73
2018-10-11T13:58:20.710Z,10.03
2018-10-11T14:00:49.430Z,9.10
2018-10-11T14:03:18.125Z,9.73
2018-10-11T14:05:47.066Z,9.13
2018-10-11T14:08:15.784Z,9.67
2018-10-11T14:10:44.607Z,8.83
2018-10-11T14:13:16.432Z,9.07
2018-10-11T14:15:42.006Z,9.90
2018-10-11T14:18:12.646Z,9.33
2018-10-11T14:20:39.474Z,9.70
2018-10-11T14:23:08.229Z,9.73
2018-10-11T14:25:37.160Z,9.90
2018-10-11T14:28:06.198Z,9.57
2018-10-11T14:30:34.996Z,9.87
2018-10-11T14:33:03.730Z,9.60
2018-10-11T14:35:32.442Z,9.67
2018-10-11T14:38:01.242Z,9.37
2018-10-11T14:40:30.104Z,9.13
2018-10-11T14:42:58.780Z,9.27
2018-10-11T14:45:27.532Z,8.97
2018-10-11T14:47:56.390Z,9.77
2018-10-11T14:50:25.251Z,9.80
2018-10-11T14:52:54.275Z,9.07
2018-10-11T14:55:23.132Z,9.27
2018-10-11T14:57:52.305Z,8.80
2018-10-11T15:00:21.313Z,9.23
2018-10-11T15:02:50.345Z,9.37
2018-10-11T15:05:19.230Z,8.20
2018-10-11T15:07:48.068Z,8.60
2018-10-11T15:10:17.028Z,8.80
2018-10-11T15:12:45.906Z,8.10
2018-10-11T15:15:14.834Z,8.67
2018-10-11T15:17:43.799Z,8.60
2018-10-11T15:20:12.646Z,8.73
2018-10-11T15:22:41.500Z,8.90
2018-10-11T15:25:10.358Z,8.50
2018-10-11T15:27:39.265Z,8.73
2018-10-11T15:30:08.557Z,9.90
2018-10-11T15:32:37.515Z,9.30
2018-10-11T15:35:06.449Z,9.20
2018-10-11T15:37:35.252Z,9.20
2018-10-11T15:40:04.016Z,8.90
2018-10-11T15:42:32.708Z,9.97
2018-10-11T15:45:01.520Z,9.70
2018-10-11T15:47:30.395Z,9.20
2018-10-11T15:49:59.297Z,9.23
2018-10-11T15:52:28.365Z,8.73
2018-10-11T15:54:57.111Z,9.40
2018-10-11T15:57:25.868Z,10.23
2018-10-11T15:59:55.756Z,10.10
2018-10-11T16:02:24.505Z,10.43
2018-10-11T16:04:53.294Z,10.07
2018-10-11T16:07:21.988Z,11.23
2018-10-11T16:09:50.673Z,11.30
2018-10-11T16:12:19.439Z,11.37
2018-10-11T16:14:48.198Z,11.50
2018-10-11T16:17:16.887Z,10.77
2018-10-11T16:19:45.650Z,12.73
2018-10-11T16:22:14.374Z,12.47
2018-10-11T16:24:43.202Z,11.03
2018-10-11T16:27:11.881Z,9.03
2018-10-11T16:29:40.728Z,10.10
2018-10-11T16:32:09.853Z,9.30
2018-10-11T16:34:38.600Z,10.20
2018-10-11T16:37:07.318Z,10.73
2018-10-11T16:39:36.064Z,11.17
2018-10-11T16:42:05.030Z,13.33
2018-10-11T16:44:33.729Z,13.57
2018-10-11T16:47:02.472Z,13.00
2018-10-11T16:49:31.203Z,12.50
2018-10-11T16:52:00.113Z,12.83
2018-10-11T16:54:29.659Z,11.50
2018-10-11T16:56:58.457Z,11.77
2018-10-11T16:59:27.175Z,11.43
2018-10-11T17:01:55.906Z,11.77
2018-10-11T17:04:24.630Z,12.43
2018-10-11T17:06:53.299Z,13.07
2018-10-11T17:09:21.980Z,12.00
2018-10-11T17:11:50.692Z,12.30
2018-10-11T17:14:19.380Z,12.43
2018-10-11T17:16:48.069Z,12.03
2018-10-11T17:19:16.758Z,14.63
2018-10-11T17:21:45.621Z,12.43
2018-10-11T17:24:14.329Z,12.37
2018-10-11T17:26:43.060Z,12.67
2018-10-11T17:29:11.813Z,13.20
2018-10-11T17:31:40.496Z,12.40
2018-10-11T17:34:09.175Z,13.07
2018-10-11T17:36:37.936Z,13.00
2018-10-11T17:39:08.161Z,12.43
2018-10-11T17:41:36.988Z,13.87
2018-10-11T17:44:05.842Z,61.97
2018-10-11T17:46:34.570Z,17.67
2018-10-11T17:49:03.300Z,14.40
2018-10-11T17:51:32.008Z,15.67
2018-10-11T17:54:00.723Z,14.93
2018-10-11T17:56:29.432Z,12.37
2018-10-11T17:58:58.187Z,11.93
2018-10-11T18:01:26.846Z,12.27
2018-10-11T18:03:55.604Z,12.27
2018-10-11T18:06:24.325Z,12.87
2018-10-11T18:08:53.102Z,11.70
2018-10-11T18:11:21.824Z,11.70
2018-10-11T18:13:50.520Z,10.50
2018-10-11T18:16:19.264Z,12.10
2018-10-11T18:18:47.905Z,11.83
2018-10-11T18:21:16.674Z,11.77
2018-10-11T18:23:45.384Z,11.93
2018-10-11T18:26:14.121Z,11.73
2018-10-11T18:28:42.934Z,11.80
2018-10-11T18:31:11.679Z,11.90
2018-10-11T18:33:40.377Z,11.10
2018-10-11T18:36:09.105Z,11.30
2018-10-11T18:38:37.891Z,11.40
2018-10-11T18:41:06.601Z,11.50
2018-10-11T18:43:35.321Z,11.63
2018-10-11T18:46:04.057Z,12.57
2018-10-11T18:48:32.809Z,12.33
2018-10-11T18:51:01.626Z,11.83
2018-10-11T18:53:30.199Z,11.93
2018-10-11T18:55:58.927Z,11.37
2018-10-11T18:58:27.642Z,11.23
2018-10-11T19:00:56.350Z,11.80
2018-10-11T19:03:25.043Z,11.23
2018-10-11T19:05:53.767Z,11.07
2018-10-11T19:08:22.502Z,11.60
2018-10-11T19:10:51.193Z,11.23
2018-10-11T19:13:19.940Z,10.67
2018-10-11T19:15:48.662Z,11.13
2018-10-11T19:18:17.355Z,11.13
2018-10-11T19:20:46.087Z,11.10
2018-10-11T19:23:14.814Z,11.53
2018-10-11T19:25:43.616Z,11.23
2018-10-11T19:28:12.459Z,11.60
2018-10-11T19:30:41.216Z,11.97
2018-10-11T19:33:09.915Z,12.77
2018-10-11T19:35:38.674Z,13.07
2018-10-11T19:38:07.386Z,12.70
2018-10-11T19:40:36.116Z,12.60
2018-10-11T19:43:04.952Z,13.00
2018-10-11T19:45:33.774Z,14.17
2018-10-11T19:48:02.497Z,13.13
2018-10-11T19:50:31.288Z,13.23
2018-10-11T19:53:00.035Z,13.53
2018-10-11T19:55:28.778Z,13.77
2018-10-11T19:57:57.483Z,14.27
2018-10-11T20:00:26.271Z,14.43
2018-10-11T20:02:54.977Z,13.10
2018-10-11T20:05:24.067Z,14.63
2018-10-11T20:07:52.924Z,14.50
2018-10-11T20:10:22.036Z,14.77
2018-10-11T20:12:50.765Z,31.13
2018-10-11T20:15:19.477Z,20.83
2018-10-11T20:17:48.170Z,34.20
2018-10-11T20:20:16.891Z,57.40
2018-10-11T20:22:45.634Z,22.17
2018-10-11T20:25:14.340Z,41.50
2018-10-11T20:27:43.531Z,62.70
2018-10-11T20:30:12.350Z,28.67
2018-10-11T20:32:41.345Z,16.80
2018-10-11T20:35:10.145Z,14.10
2018-10-11T20:37:38.976Z,15.53
2018-10-11T20:40:07.915Z,17.90
2018-10-11T20:42:36.807Z,16.20
2018-10-11T20:45:05.805Z,15.47
2018-10-11T20:47:34.547Z,14.73
2018-10-11T20:50:03.967Z,14.83
2018-10-11T20:52:32.683Z,15.40
2018-10-11T20:55:01.393Z,14.80
2018-10-11T20:57:31.396Z,15.93
2018-10-11T21:00:00.645Z,16.53
2018-10-11T21:02:29.337Z,15.00
2018-10-11T21:04:58.083Z,15.13
2018-10-11T21:07:26.769Z,15.00
2018-10-11T21:09:55.525Z,15.77
2018-10-11T21:12:24.210Z,16.77
2018-10-11T21:14:52.928Z,14.07
2018-10-11T21:17:21.614Z,13.67
2018-10-11T21:19:50.349Z,13.80
2018-10-11T21:22:19.034Z,13.77
2018-10-11T21:24:47.751Z,13.37
2018-10-11T21:27:16.531Z,13.90
2018-10-11T21:29:45.447Z,14.90
2018-10-11T21:32:14.213Z,14.33
2018-10-11T21:34:43.118Z,13.43
2018-10-11T21:37:11.996Z,13.97
2018-10-11T21:39:40.812Z,13.87
2018-10-11T21:42:09.734Z,12.77
2018-10-11T21:44:39.097Z,12.73
2018-10-11T21:47:07.900Z,12.50
2018-10-11T21:49:36.612Z,12.90
2018-10-11T21:52:05.271Z,12.67
2018-10-11T21:54:33.976Z,11.40
2018-10-11T21:57:02.666Z,10.77
2018-10-11T21:59:31.328Z,12.07
2018-10-11T22:02:00.015Z,10.90
2018-10-11T22:04:28.728Z,10.23
2018-10-11T22:06:57.446Z,10.43
2018-10-11T22:09:32.811Z,11.37
2018-10-11T22:12:01.501Z,11.20
2018-10-11T22:14:30.316Z,10.80
2018-10-11T22:16:58.983Z,10.97
2018-10-11T22:19:27.760Z,11.13
2018-10-11T22:21:56.587Z,10.57
2018-10-11T22:24:25.343Z,11.47
2018-10-11T22:26:54.057Z,9.20
2018-10-11T22:29:22.777Z,10.63
2018-10-11T22:31:51.487Z,11.30
2018-10-11T22:34:20.159Z,11.53
2018-10-11T22:36:48.896Z,10.03
2018-10-11T22:39:17.553Z,10.33
2018-10-11T22:41:46.257Z,12.03
2018-10-11T22:44:14.983Z,11.40
2018-10-11T22:46:43.651Z,12.03
2018-10-11T22:49:12.339Z,10.97
2018-10-11T22:51:41.256Z,14.60
2018-10-11T22:54:10.537Z,13.00
2018-10-11T22:56:39.257Z,10.37
2018-10-11T22:59:07.946Z,10.57
2018-10-11T23:01:37.223Z,10.03
2018-10-11T23:04:05.921Z,10.23
2018-10-11T23:06:34.617Z,10.33
2018-10-11T23:09:03.511Z,10.10
2018-10-11T23:11:32.209Z,10.37
2018-10-11T23:14:00.877Z,9.93
2018-10-11T23:16:29.564Z,9.60
2018-10-11T23:18:58.225Z,9.33
2018-10-11T23:21:26.919Z,10.03
2018-10-11T23:23:55.644Z,9.77
2018-10-11T23:26:24.431Z,10.37
2018-10-11T23:28:53.151Z,9.90
2018-10-11T23:31:21.861Z,10.03
2018-10-11T23:33:50.557Z,9.80
2018-10-11T23:36:19.264Z,9.37
2018-10-11T23:38:48.002Z,10.80
2018-10-11T23:41:16.784Z,9.47
2018-10-11T23:43:45.571Z,10.60
2018-10-11T23:46:14.279Z,9.77
2018-10-11T23:48:42.980Z,10.30
2018-10-11T23:51:11.720Z,10.07
2018-10-11T23:53:40.543Z,10.20
2018-10-11T23:56:09.239Z,9.53
2018-10-11T23:58:38.065Z,10.30
